Time;durP1;ratioP1;P1;durP2;ratioP2;P2;SDS_P1;SDS_P2;PMS_P1;PMS_P2;Temp;Humidity;BMP_temperature;BMP_pressure;BME280_temperature;BME280_humidity;BME280_pressure;Samples;Min_cycle;Max_cycle;Signal;HPM_P1;HPM_P2
2021/12/13 00:02:50;;;;;;;;;;;21.00;50.60;;;;;;6232546;28;20035;-39
2021/12/13 00:05:54;;;;;;;;;;;21.70;50.90;;;;;;6234006;28;20050;-39
2021/12/13 00:08:58;;;;;;;;;;;20.90;50.70;;;;;;6238223;28;19967;-41
2021/12/13 00:12:02;;;;;;;;;;;21.40;51.00;;;;;;6235522;28;20016;-41
2021/12/13 00:15:07;;;;;;;;;;;20.90;50.10;;;;;;6235785;28;19955;-39
2021/12/13 00:18:14;;;;;;;;;;;21.00;50.60;;;;;;6237131;28;19920;-39
2021/12/13 00:21:20;;;;;;;;;;;20.80;50.50;;;;;;6226188;28;19967;-39
2021/12/13 00:24:22;;;;;;;;;;;21.40;50.90;;;;;;6255813;28;20063;-39
2021/12/13 00:27:25;;;;;;;;;;;20.60;50.50;;;;;;6218784;28;19924;-40
2021/12/13 00:30:30;;;;;;;;;;;21.00;50.70;;;;;;6253452;28;20074;-39
2021/12/13 00:33:35;;;;;;;;;;;21.10;50.70;;;;;;6236893;28;19967;-39
2021/12/13 00:36:40;;;;;;;;;;;20.70;50.50;;;;;;6239469;28;19921;-39
2021/12/13 00:39:45;;;;;;;;;;;20.90;50.80;;;;;;6240454;28;20057;-39
2021/12/13 00:42:50;;;;;;;;;;;21.00;50.70;;;;;;6238941;28;20081;-39
2021/12/13 00:45:53;;;;;;;;;;;21.10;50.90;;;;;;6236740;28;20542;-39
2021/12/13 00:48:55;;;;;;;;;;;20.80;50.60;;;;;;6217232;28;19935;-39
2021/12/13 00:51:58;;;;;;;;;;;21.20;51.60;;;;;;6224484;28;20023;-39
2021/12/13 00:54:59;;;;;;;;;;;20.90;50.90;;;;;;6222108;28;19931;-40
2021/12/13 00:58:06;;;;;;;;;;;21.60;51.00;;;;;;6238752;28;20714;-39
2021/12/13 01:01:08;;;;;;;;;;;21.10;50.60;;;;;;6220549;28;20054;-42
2021/12/13 01:04:14;;;;;;;;;;;21.00;50.90;;;;;;6240369;28;20698;-39
2021/12/13 01:07:34;;;;;;;;;;;20.90;50.80;;;;;;6234234;28;19928;-39
2021/12/13 01:10:50;;;;;;;;;;;21.00;50.70;;;;;;6241330;28;19935;-39
2021/12/13 01:14:04;;;;;;;;;;;20.90;50.90;;;;;;6242291;28;19920;-39
2021/12/13 01:17:13;;;;;;;;;;;20.80;50.70;;;;;;6222578;28;20093;-40
2021/12/13 01:20:25;;;;;;;;;;;21.10;50.70;;;;;;6242379;28;20085;-39
2021/12/13 01:23:40;;;;;;;;;;;20.80;50.50;;;;;;6220403;28;19928;-39
2021/12/13 01:26:43;;;;;;;;;;;20.80;50.90;;;;;;6241458;28;20686;-39
2021/12/13 01:29:50;;;;;;;;;;;21.00;50.90;;;;;;6241139;28;19979;-39
2021/12/13 01:32:53;;;;;;;;;;;20.90;50.80;;;;;;6240709;28;20101;-39
2021/12/13 01:35:58;;;;;;;;;;;20.80;50.70;;;;;;6237954;28;20031;-40
2021/12/13 01:39:04;;;;;;;;;;;21.30;51.00;;;;;;6239956;28;19928;-39
2021/12/13 01:42:08;;;;;;;;;;;21.10;51.00;;;;;;6241606;28;19936;-39
2021/12/13 01:45:11;;;;;;;;;;;20.80;50.60;;;;;;6216919;28;19934;-39
2021/12/13 01:48:16;;;;;;;;;;;20.80;50.80;;;;;;6217811;28;20054;-39
2021/12/13 01:51:20;;;;;;;;;;;21.10;50.90;;;;;;6217780;28;19971;-39
2021/12/13 01:54:22;;;;;;;;;;;21.00;50.90;;;;;;6253814;28;19920;-40
2021/12/13 01:57:28;;;;;;;;;;;20.80;50.80;;;;;;6220482;28;19929;-39
2021/12/13 02:00:43;;;;;;;;;;;21.10;51.00;;;;;;6222533;28;19989;-39
2021/12/13 02:03:48;;;;;;;;;;;20.90;50.90;;;;;;6240223;28;20021;-39
2021/12/13 02:06:51;;;;;;;;;;;20.80;50.80;;;;;;6246344;28;20720;-39
2021/12/13 02:09:55;;;;;;;;;;;20.70;50.70;;;;;;6244392;28;19935;-41
2021/12/13 02:13:01;;;;;;;;;;;21.20;51.10;;;;;;6244780;28;20004;-39
2021/12/13 02:19:19;;;;;;;;;;;20.80;50.80;;;;;;6225213;28;19928;-39
2021/12/13 02:22:24;;;;;;;;;;;21.60;51.80;;;;;;6229990;28;20937;-39
2021/12/13 02:25:27;;;;;;;;;;;21.10;50.90;;;;;;6245384;28;20033;-39
2021/12/13 02:28:32;;;;;;;;;;;20.70;50.90;;;;;;6246982;28;19927;-40
2021/12/13 02:31:35;;;;;;;;;;;20.90;51.00;;;;;;6229462;28;19944;-39
2021/12/13 02:34:38;;;;;;;;;;;21.30;50.50;;;;;;6238422;28;19933;-39
2021/12/13 02:37:41;;;;;;;;;;;20.60;50.70;;;;;;6231583;28;19994;-39
2021/12/13 02:40:43;;;;;;;;;;;20.70;50.90;;;;;;6227199;28;20399;-39
2021/12/13 02:43:48;;;;;;;;;;;21.10;51.10;;;;;;6229985;28;20255;-39
2021/12/13 02:46:50;;;;;;;;;;;20.80;50.90;;;;;;6221215;28;20035;-39
2021/12/13 02:49:52;;;;;;;;;;;21.20;51.10;;;;;;6228527;28;19924;-39
2021/12/13 02:52:53;;;;;;;;;;;21.20;50.50;;;;;;6231175;28;20212;-39
2021/12/13 02:55:55;;;;;;;;;;;20.90;51.00;;;;;;6227858;28;20102;-39
2021/12/13 02:58:57;;;;;;;;;;;21.00;51.10;;;;;;6225924;28;20078;-40
2021/12/13 03:02:00;;;;;;;;;;;21.20;51.00;;;;;;6231154;28;19926;-39
2021/12/13 03:05:04;;;;;;;;;;;20.90;50.90;;;;;;6230767;28;19997;-39
2021/12/13 03:08:07;;;;;;;;;;;20.90;50.90;;;;;;6214645;28;19928;-39
2021/12/13 03:11:11;;;;;;;;;;;21.20;51.10;;;;;;6233341;28;20315;-39
2021/12/13 03:14:15;;;;;;;;;;;20.80;50.80;;;;;;6226561;28;19967;-39
2021/12/13 03:17:19;;;;;;;;;;;20.90;50.90;;;;;;6232220;28;20125;-39
2021/12/13 03:20:25;;;;;;;;;;;21.00;51.00;;;;;;6213755;28;19924;-39
2021/12/13 03:23:34;;;;;;;;;;;21.60;51.20;;;;;;6209951;28;19958;-39
2021/12/13 03:26:43;;;;;;;;;;;21.20;50.90;;;;;;6234730;28;19968;-39
2021/12/13 03:29:51;;;;;;;;;;;20.90;50.80;;;;;;6233776;28;20018;-39
2021/12/13 03:32:55;;;;;;;;;;;21.10;51.00;;;;;;6215909;28;19924;-40
2021/12/13 03:35:58;;;;;;;;;;;20.80;50.80;;;;;;6244588;28;19970;-39
2021/12/13 03:39:00;;;;;;;;;;;21.30;51.00;;;;;;6244869;28;19933;-41
2021/12/13 03:42:03;;;;;;;;;;;20.80;50.90;;;;;;6239201;28;20113;-39
2021/12/13 03:45:07;;;;;;;;;;;21.00;50.90;;;;;;6237428;28;20774;-39
2021/12/13 03:48:11;;;;;;;;;;;20.80;50.90;;;;;;6225345;28;20170;-39
2021/12/13 03:51:14;;;;;;;;;;;20.90;50.90;;;;;;6230357;28;20636;-39
2021/12/13 03:54:17;;;;;;;;;;;21.30;50.70;;;;;;6231711;28;20343;-39
2021/12/13 03:57:18;;;;;;;;;;;21.00;51.10;;;;;;6215578;28;20042;-39
2021/12/13 04:00:23;;;;;;;;;;;21.10;51.10;;;;;;6212970;28;20031;-39
2021/12/13 04:03:25;;;;;;;;;;;20.90;51.10;;;;;;6227183;28;20325;-39
2021/12/13 04:06:27;;;;;;;;;;;20.90;50.90;;;;;;6222449;28;19924;-40
2021/12/13 04:09:29;;;;;;;;;;;20.80;50.90;;;;;;6228043;28;20134;-39
2021/12/13 04:12:38;;;;;;;;;;;20.90;50.90;;;;;;6231307;28;20255;-40
2021/12/13 04:15:52;;;;;;;;;;;21.30;51.20;;;;;;6246196;28;19931;-41
2021/12/13 04:19:06;;;;;;;;;;;21.30;51.10;;;;;;6217239;28;20370;-40
2021/12/13 04:22:09;;;;;;;;;;;21.20;51.10;;;;;;6229058;28;20678;-40
2021/12/13 04:25:13;;;;;;;;;;;20.90;51.00;;;;;;6222251;28;20739;-40
2021/12/13 04:28:16;;;;;;;;;;;21.00;51.10;;;;;;6217432;28;20018;-40
2021/12/13 04:31:19;;;;;;;;;;;20.90;50.90;;;;;;6237979;28;19979;-42
2021/12/13 04:34:21;;;;;;;;;;;21.20;51.20;;;;;;6236765;28;20011;-41
2021/12/13 04:37:43;;;;;;;;;;;20.70;50.80;;;;;;6223638;28;20679;-41
2021/12/13 04:40:45;;;;;;;;;;;21.20;51.00;;;;;;6230741;28;19928;-40
2021/12/13 04:43:47;;;;;;;;;;;20.90;50.90;;;;;;6236661;28;20807;-45
2021/12/13 04:46:51;;;;;;;;;;;21.10;50.70;;;;;;6239311;28;19924;-43
2021/12/13 04:49:56;;;;;;;;;;;21.50;51.20;;;;;;6240746;28;20796;-42
2021/12/13 04:52:58;;;;;;;;;;;20.90;50.70;;;;;;6233815;28;19924;-41
2021/12/13 04:56:01;;;;;;;;;;;21.40;51.00;;;;;;6212197;28;20913;-41
2021/12/13 04:59:04;;;;;;;;;;;21.20;51.10;;;;;;6222611;28;19924;-40
2021/12/13 05:02:06;;;;;;;;;;;20.90;50.90;;;;;;6222785;28;20448;-40
2021/12/13 05:05:08;;;;;;;;;;;21.00;50.90;;;;;;6221692;28;20038;-40
2021/12/13 05:08:14;;;;;;;;;;;20.80;51.00;;;;;;6225757;28;19928;-40
2021/12/13 05:11:17;;;;;;;;;;;20.90;51.00;;;;;;6204823;28;20375;-41
2021/12/13 05:14:28;;;;;;;;;;;20.90;51.10;;;;;;6222299;28;20239;-41
2021/12/13 05:17:33;;;;;;;;;;;20.80;50.90;;;;;;6209706;28;19959;-42
2021/12/13 05:20:37;;;;;;;;;;;21.80;51.50;;;;;;6218864;28;20005;-43
2021/12/13 05:23:39;;;;;;;;;;;21.20;51.10;;;;;;6221940;28;19989;-43
2021/12/13 05:26:46;;;;;;;;;;;20.90;51.10;;;;;;6235665;28;20027;-43
2021/12/13 05:29:48;;;;;;;;;;;20.80;50.90;;;;;;6210532;28;19931;-41
2021/12/13 05:32:51;;;;;;;;;;;20.90;51.00;;;;;;6238972;28;19929;-42
2021/12/13 05:35:54;;;;;;;;;;;21.20;51.20;;;;;;6219223;28;20897;-41
2021/12/13 05:39:06;;;;;;;;;;;21.40;50.70;;;;;;6241020;28;19929;-41
2021/12/13 05:42:09;;;;;;;;;;;20.90;51.10;;;;;;6235931;28;20044;-43
2021/12/13 05:45:11;;;;;;;;;;;20.80;51.20;;;;;;6214381;28;20036;-41
2021/12/13 05:48:14;;;;;;;;;;;20.90;51.00;;;;;;6234025;28;19939;-40
2021/12/13 05:51:21;;;;;;;;;;;21.20;51.20;;;;;;6226864;28;20324;-40
2021/12/13 05:54:25;;;;;;;;;;;21.00;51.10;;;;;;6201468;28;20625;-41
2021/12/13 05:57:29;;;;;;;;;;;20.80;51.10;;;;;;6217546;28;20584;-40
2021/12/13 06:00:32;;;;;;;;;;;21.00;51.20;;;;;;6220126;28;20055;-41
2021/12/13 06:03:35;;;;;;;;;;;20.80;51.00;;;;;;6223166;28;19929;-40
2021/12/13 06:06:46;;;;;;;;;;;21.40;51.40;;;;;;6221817;28;19936;-42
2021/12/13 06:09:51;;;;;;;;;;;20.80;51.20;;;;;;6208103;28;20914;-42
2021/12/13 06:12:58;;;;;;;;;;;21.30;51.40;;;;;;6223609;28;20045;-43
2021/12/13 06:15:59;;;;;;;;;;;20.60;51.00;;;;;;6223732;28;19924;-40
2021/12/13 06:19:04;;;;;;;;;;;21.00;51.30;;;;;;6217597;28;19935;-41
2021/12/13 06:22:07;;;;;;;;;;;21.70;51.60;;;;;;6221172;28;20101;-42
2021/12/13 06:25:10;;;;;;;;;;;21.10;51.40;;;;;;6210031;28;19920;-41
2021/12/13 06:28:22;;;;;;;;;;;20.70;51.00;;;;;;6224080;28;19928;-43
2021/12/13 06:31:33;;;;;;;;;;;20.90;51.10;;;;;;6204738;28;20783;-43
2021/12/13 06:34:35;;;;;;;;;;;20.80;51.00;;;;;;6210090;28;19928;-43
2021/12/13 06:37:36;;;;;;;;;;;20.80;51.20;;;;;;6231227;28;21538;-43
2021/12/13 06:40:46;;;;;;;;;;;20.70;51.10;;;;;;6226589;28;19929;-43
2021/12/13 06:43:50;;;;;;;;;;;20.90;51.10;;;;;;6227097;28;19928;-44
2021/12/13 06:46:53;;;;;;;;;;;21.30;50.70;;;;;;6207631;28;20683;-41
2021/12/13 06:49:57;;;;;;;;;;;20.80;50.90;;;;;;6223640;28;19933;-42
2021/12/13 06:53:13;;;;;;;;;;;21.80;51.40;;;;;;6229322;28;19959;-42
2021/12/13 06:56:19;;;;;;;;;;;21.20;51.00;;;;;;6207986;28;19935;-42
2021/12/13 06:59:22;;;;;;;;;;;21.40;51.10;;;;;;6201466;28;20027;-40
2021/12/13 07:02:24;;;;;;;;;;;20.90;50.90;;;;;;6203404;28;20875;-42
2021/12/13 07:05:28;;;;;;;;;;;21.30;51.00;;;;;;6213922;28;19968;-41
2021/12/13 07:08:31;;;;;;;;;;;20.90;50.70;;;;;;6218775;28;21569;-41
2021/12/13 07:11:42;;;;;;;;;;;20.90;50.60;;;;;;6196653;28;20846;-41
2021/12/13 07:14:44;;;;;;;;;;;21.30;50.70;;;;;;6205705;28;20035;-42
2021/12/13 07:17:59;;;;;;;;;;;21.10;50.70;;;;;;6189638;28;19928;-41
2021/12/13 07:21:04;;;;;;;;;;;21.10;50.60;;;;;;6209806;28;21045;-43
2021/12/13 07:24:09;;;;;;;;;;;21.80;50.80;;;;;;6173837;28;19928;-41
2021/12/13 07:27:12;;;;;;;;;;;20.80;50.40;;;;;;6217577;28;19924;-40
2021/12/13 07:30:16;;;;;;;;;;;21.10;50.40;;;;;;6212772;28;19928;-40
2021/12/13 07:33:17;;;;;;;;;;;21.20;50.50;;;;;;6171042;28;19966;-40
2021/12/13 07:36:21;;;;;;;;;;;21.20;50.60;;;;;;6188602;28;19935;-42
2021/12/13 07:39:25;;;;;;;;;;;21.10;50.30;;;;;;6186390;28;19928;-41
2021/12/13 07:42:32;;;;;;;;;;;21.80;50.60;;;;;;6184903;28;19928;-42
2021/12/13 07:45:37;;;;;;;;;;;21.20;50.40;;;;;;6169017;28;21159;-41
2021/12/13 07:48:51;;;;;;;;;;;21.70;50.10;;;;;;6175184;28;21049;-40
2021/12/13 07:51:55;;;;;;;;;;;21.30;50.30;;;;;;6165272;28;20923;-40
2021/12/13 07:54:58;;;;;;;;;;;22.10;50.90;;;;;;6145343;28;19933;-40
2021/12/13 07:58:02;;;;;;;;;;;21.40;50.40;;;;;;6113876;28;19950;-39
2021/12/13 08:01:08;;;;;;;;;;;21.70;50.40;;;;;;6091503;28;20623;-40
2021/12/13 08:04:11;;;;;;;;;;;21.40;50.10;;;;;;6059679;28;19987;-41
2021/12/13 08:07:14;;;;;;;;;;;21.60;50.90;;;;;;6030700;28;19955;-41
2021/12/13 08:10:19;;;;;;;;;;;21.70;50.40;;;;;;6034349;28;19935;-42
2021/12/13 08:13:22;;;;;;;;;;;21.80;50.20;;;;;;6018258;28;21342;-39
2021/12/13 08:16:29;;;;;;;;;;;21.80;50.40;;;;;;6054464;28;20091;-42
2021/12/13 08:19:32;;;;;;;;;;;21.90;50.40;;;;;;6053488;28;20325;-40
2021/12/13 08:22:34;;;;;;;;;;;21.60;50.20;;;;;;6034864;28;25654;-42
2021/12/13 08:25:38;;;;;;;;;;;21.40;50.10;;;;;;6031526;28;20983;-43
2021/12/13 08:28:41;;;;;;;;;;;22.00;50.20;;;;;;6031970;28;19929;-42
2021/12/13 08:31:45;;;;;;;;;;;22.00;50.10;;;;;;5992480;28;19935;-42
2021/12/13 08:34:48;;;;;;;;;;;21.70;50.10;;;;;;5986020;28;21618;-45
2021/12/13 08:37:53;;;;;;;;;;;21.40;49.90;;;;;;5968960;28;20070;-41
2021/12/13 08:40:55;;;;;;;;;;;22.00;50.10;;;;;;5969205;28;19932;-40
2021/12/13 08:43:59;;;;;;;;;;;22.20;50.00;;;;;;5969111;28;19928;-41
2021/12/13 08:47:06;;;;;;;;;;;21.60;49.70;;;;;;5996822;28;19936;-41
2021/12/13 08:50:11;;;;;;;;;;;21.60;49.60;;;;;;6119464;28;20974;-42
2021/12/13 08:53:14;;;;;;;;;;;22.10;49.80;;;;;;5972218;28;19928;-45
2021/12/13 08:56:21;;;;;;;;;;;22.30;49.90;;;;;;5972754;28;19928;-42
2021/12/13 08:59:25;;;;;;;;;;;22.10;50.20;;;;;;6005829;28;19928;-42
2021/12/13 09:02:29;;;;;;;;;;;21.60;49.40;;;;;;5965856;28;19936;-42
2021/12/13 09:05:35;;;;;;;;;;;21.70;49.60;;;;;;5994362;28;20082;-41
2021/12/13 09:08:40;;;;;;;;;;;22.20;50.10;;;;;;5993284;28;19955;-42
2021/12/13 09:11:46;;;;;;;;;;;21.80;49.40;;;;;;5979986;28;21242;-41
2021/12/13 09:14:51;;;;;;;;;;;22.30;48.90;;;;;;6000566;28;21269;-42
2021/12/13 09:17:53;;;;;;;;;;;22.10;49.40;;;;;;6020104;28;19928;-41
2021/12/13 09:20:56;;;;;;;;;;;22.20;49.50;;;;;;6011825;28;19928;-40
2021/12/13 09:23:57;;;;;;;;;;;21.90;49.50;;;;;;6004116;28;25012;-41
2021/12/13 09:27:08;;;;;;;;;;;22.40;49.70;;;;;;6007975;28;20038;-40
2021/12/13 09:30:20;;;;;;;;;;;21.90;49.50;;;;;;5993540;28;19933;-39
2021/12/13 09:33:23;;;;;;;;;;;22.00;49.20;;;;;;5979646;28;19943;-39
2021/12/13 09:36:26;;;;;;;;;;;22.40;49.50;;;;;;5980983;28;21244;-39
2021/12/13 09:39:29;;;;;;;;;;;22.50;49.50;;;;;;5992246;28;20064;-42
2021/12/13 09:42:42;;;;;;;;;;;22.60;49.60;;;;;;5992063;28;20567;-38
2021/12/13 09:45:48;;;;;;;;;;;22.30;49.20;;;;;;5993623;28;21088;-39
2021/12/13 09:48:51;;;;;;;;;;;22.40;49.50;;;;;;5965702;28;20556;-39
2021/12/13 09:51:55;;;;;;;;;;;22.50;49.50;;;;;;5995008;28;22237;-39
2021/12/13 09:54:59;;;;;;;;;;;22.30;49.40;;;;;;6029497;28;19935;-39
2021/12/13 09:58:04;;;;;;;;;;;22.40;49.60;;;;;;6021743;28;20059;-41
2021/12/13 10:01:07;;;;;;;;;;;22.10;49.30;;;;;;5981286;28;21610;-41
2021/12/13 10:04:11;;;;;;;;;;;22.00;49.30;;;;;;6007135;28;21152;-38
2021/12/13 10:07:14;;;;;;;;;;;22.20;49.20;;;;;;5968188;28;19935;-40
2021/12/13 10:10:19;;;;;;;;;;;22.60;49.30;;;;;;6028590;28;19932;-40
2021/12/13 10:13:32;;;;;;;;;;;22.60;49.50;;;;;;5998521;28;20584;-41
2021/12/13 10:16:35;;;;;;;;;;;22.70;49.40;;;;;;6007334;28;20439;-41
2021/12/13 10:19:39;;;;;;;;;;;22.30;49.20;;;;;;5998485;28;19965;-42
2021/12/13 10:22:42;;;;;;;;;;;22.20;48.50;;;;;;6006085;28;19928;-40
2021/12/13 10:25:46;;;;;;;;;;;22.40;49.30;;;;;;6036937;28;21750;-40
2021/12/13 10:28:53;;;;;;;;;;;22.60;49.50;;;;;;6023463;28;21391;-42
2021/12/13 10:31:57;;;;;;;;;;;22.30;49.10;;;;;;6019615;28;21536;-41
2021/12/13 10:35:03;;;;;;;;;;;22.80;49.30;;;;;;6019934;28;19935;-42
2021/12/13 10:38:08;;;;;;;;;;;22.60;49.20;;;;;;6029585;28;21119;-43
2021/12/13 10:41:11;;;;;;;;;;;22.10;49.00;;;;;;5991309;28;19928;-40
2021/12/13 10:44:14;;;;;;;;;;;22.60;49.50;;;;;;6029712;28;19936;-44
2021/12/13 10:47:19;;;;;;;;;;;22.20;48.50;;;;;;6004701;28;20092;-41
2021/12/13 10:50:23;;;;;;;;;;;23.10;49.50;;;;;;6032753;28;19935;-42
2021/12/13 10:53:26;;;;;;;;;;;22.90;49.30;;;;;;6013379;28;19928;-42
2021/12/13 10:56:29;;;;;;;;;;;23.00;50.10;;;;;;6021358;28;19934;-42
2021/12/13 10:59:32;;;;;;;;;;;22.40;49.00;;;;;;5996133;28;19982;-39
2021/12/13 11:02:34;;;;;;;;;;;22.50;49.10;;;;;;6011727;28;19936;-43
2021/12/13 11:05:37;;;;;;;;;;;22.40;48.90;;;;;;5990624;28;19928;-42
2021/12/13 11:08:42;;;;;;;;;;;22.50;49.00;;;;;;6015713;28;19933;-41
2021/12/13 11:11:47;;;;;;;;;;;22.90;46.80;;;;;;6015734;28;19928;-44
2021/12/13 11:14:50;;;;;;;;;;;22.50;48.90;;;;;;6032658;28;19928;-43
2021/12/13 11:17:54;;;;;;;;;;;23.00;49.20;;;;;;6028837;28;19928;-43
2021/12/13 11:20:58;;;;;;;;;;;22.70;48.80;;;;;;6029770;28;19929;-44
2021/12/13 11:24:00;;;;;;;;;;;22.80;48.90;;;;;;6049873;28;20645;-45
2021/12/13 11:27:05;;;;;;;;;;;23.00;48.60;;;;;;6066026;28;21271;-44
2021/12/13 11:30:08;;;;;;;;;;;22.90;49.50;;;;;;6050828;28;20070;-43
2021/12/13 11:33:24;;;;;;;;;;;22.50;48.80;;;;;;6066147;28;19955;-43
2021/12/13 11:36:30;;;;;;;;;;;22.80;48.70;;;;;;6089233;28;20144;-42
2021/12/13 11:39:43;;;;;;;;;;;22.40;49.00;;;;;;6085872;28;19928;-42
2021/12/13 11:43:03;;;;;;;;;;;22.30;48.70;;;;;;6096246;28;19947;-44
2021/12/13 11:46:13;;;;;;;;;;;22.60;49.20;;;;;;6124852;28;19974;-44
2021/12/13 11:49:24;;;;;;;;;;;22.30;48.90;;;;;;6095525;28;19928;-43
2021/12/13 11:52:42;;;;;;;;;;;22.40;48.90;;;;;;6071746;28;20074;-44
2021/12/13 11:55:55;;;;;;;;;;;22.40;49.00;;;;;;6103719;28;19928;-42
2021/12/13 11:59:04;;;;;;;;;;;22.80;49.20;;;;;;6126008;28;19934;-42
2021/12/13 12:02:10;;;;;;;;;;;21.90;48.70;;;;;;6117705;28;19929;-43
2021/12/13 12:05:37;;;;;;;;;;;22.70;48.90;;;;;;6106697;28;19963;-43
2021/12/13 12:08:54;;;;;;;;;;;23.10;49.10;;;;;;6127514;28;21727;-42
2021/12/13 12:12:05;;;;;;;;;;;22.80;48.90;;;;;;6128050;28;21084;-40
2021/12/13 12:15:07;;;;;;;;;;;22.40;48.50;;;;;;6109380;28;19928;-41
2021/12/13 12:18:11;;;;;;;;;;;22.70;48.70;;;;;;6127125;28;20007;-40
2021/12/13 12:21:25;;;;;;;;;;;23.00;48.90;;;;;;6134363;28;19928;-40
2021/12/13 12:24:28;;;;;;;;;;;22.80;48.80;;;;;;6119361;28;20005;-42
2021/12/13 12:27:30;;;;;;;;;;;22.70;48.80;;;;;;6108487;28;19986;-43
2021/12/13 12:30:35;;;;;;;;;;;22.90;48.90;;;;;;6110769;28;19928;-43
2021/12/13 12:33:38;;;;;;;;;;;22.50;48.60;;;;;;6113426;28;19967;-43
2021/12/13 12:36:44;;;;;;;;;;;22.60;48.60;;;;;;6111656;28;24264;-43
2021/12/13 12:39:52;;;;;;;;;;;23.10;48.50;;;;;;6120519;28;19929;-41
2021/12/13 12:42:55;;;;;;;;;;;23.00;48.50;;;;;;6103417;28;19936;-44
2021/12/13 12:45:58;;;;;;;;;;;22.60;48.30;;;;;;6116901;28;19928;-42
2021/12/13 12:49:01;;;;;;;;;;;22.90;48.40;;;;;;6076043;28;19935;-41
2021/12/13 12:52:05;;;;;;;;;;;23.00;48.60;;;;;;6093344;28;19982;-40
2021/12/13 12:55:12;;;;;;;;;;;23.10;48.80;;;;;;6075889;28;20814;-39
2021/12/13 12:58:15;;;;;;;;;;;23.20;48.00;;;;;;6076507;28;19929;-40
2021/12/13 13:01:18;;;;;;;;;;;22.80;48.20;;;;;;6015026;28;19994;-41
2021/12/13 13:04:22;;;;;;;;;;;22.80;48.50;;;;;;5979459;28;31011;-55
2021/12/13 13:07:27;;;;;;;;;;;23.30;49.10;;;;;;6004390;28;21697;-45
2021/12/13 13:13:46;;;;;;;;;;;22.80;48.10;;;;;;6057294;28;19935;-46
2021/12/13 13:16:49;;;;;;;;;;;22.60;48.20;;;;;;6009098;28;23673;-42
2021/12/13 13:19:55;;;;;;;;;;;23.40;48.50;;;;;;6018081;28;19929;-45
2021/12/13 13:22:57;;;;;;;;;;;23.30;48.40;;;;;;5993302;28;20023;-43
2021/12/13 13:26:04;;;;;;;;;;;23.10;48.50;;;;;;6003095;28;19934;-47
2021/12/13 13:29:06;;;;;;;;;;;23.20;47.90;;;;;;6005813;28;19935;-43
2021/12/13 13:32:10;;;;;;;;;;;22.80;48.40;;;;;;5985961;28;20046;-41
2021/12/13 13:35:13;;;;;;;;;;;22.90;48.20;;;;;;5982863;28;20916;-40
2021/12/13 13:38:35;;;;;;;;;;;23.10;48.20;;;;;;6008368;28;19935;-42
2021/12/13 13:41:37;;;;;;;;;;;23.20;48.50;;;;;;6014535;28;22133;-41
2021/12/13 13:44:39;;;;;;;;;;;23.00;48.50;;;;;;5998291;28;19935;-41
2021/12/13 13:47:43;;;;;;;;;;;23.30;48.70;;;;;;6024987;28;19935;-41
2021/12/13 13:50:46;;;;;;;;;;;22.50;48.00;;;;;;6026203;28;19987;-41
2021/12/13 13:53:53;;;;;;;;;;;23.00;48.10;;;;;;6000447;28;19928;-41
2021/12/13 13:56:54;;;;;;;;;;;23.00;48.40;;;;;;6020416;28;23058;-40
2021/12/13 13:59:57;;;;;;;;;;;22.70;48.30;;;;;;5990485;28;19928;-41
2021/12/13 14:02:59;;;;;;;;;;;23.10;48.30;;;;;;5990341;28;20058;-41
2021/12/13 14:06:02;;;;;;;;;;;23.00;48.40;;;;;;5962021;28;19939;-52
2021/12/13 14:09:06;;;;;;;;;;;23.10;48.40;;;;;;6027677;28;19928;-47
2021/12/13 14:12:09;;;;;;;;;;;23.20;47.80;;;;;;6046661;28;20067;-41
2021/12/13 14:15:13;;;;;;;;;;;23.20;48.30;;;;;;6025432;28;24931;-40
2021/12/13 14:18:16;;;;;;;;;;;23.40;48.30;;;;;;5998424;28;19928;-41
2021/12/13 14:21:21;;;;;;;;;;;23.10;48.20;;;;;;6040721;28;19928;-41
2021/12/13 14:24:29;;;;;;;;;;;22.80;48.00;;;;;;6054626;28;22240;-42
2021/12/13 14:27:31;;;;;;;;;;;22.90;47.90;;;;;;6023755;28;20254;-41
2021/12/13 14:30:41;;;;;;;;;;;22.70;47.80;;;;;;6020431;28;19998;-41
2021/12/13 14:33:45;;;;;;;;;;;23.20;48.10;;;;;;6003443;28;19986;-43
2021/12/13 14:36:49;;;;;;;;;;;23.10;48.10;;;;;;5998719;28;19928;-42
2021/12/13 14:39:51;;;;;;;;;;;22.90;47.90;;;;;;6015885;28;20056;-42
2021/12/13 14:42:52;;;;;;;;;;;23.20;47.60;;;;;;6010886;28;19954;-41
2021/12/13 14:45:54;;;;;;;;;;;22.80;47.70;;;;;;5993417;28;19968;-41
2021/12/13 14:49:05;;;;;;;;;;;22.90;47.90;;;;;;5985787;28;34177;-40
2021/12/13 14:52:08;;;;;;;;;;;22.90;47.80;;;;;;6013047;28;19928;-41
2021/12/13 14:55:12;;;;;;;;;;;23.30;48.00;;;;;;6025184;28;19977;-42
2021/12/13 14:58:15;;;;;;;;;;;22.70;47.80;;;;;;6023570;28;19929;-40
2021/12/13 15:01:18;;;;;;;;;;;22.60;47.50;;;;;;5968329;28;19928;-40
2021/12/13 15:04:22;;;;;;;;;;;23.00;47.90;;;;;;5979211;28;20059;-42
2021/12/13 15:07:26;;;;;;;;;;;23.20;47.80;;;;;;5985148;28;22190;-42
2021/12/13 15:10:32;;;;;;;;;;;23.30;48.00;;;;;;5983573;28;20888;-40
2021/12/13 15:13:34;;;;;;;;;;;22.90;47.70;;;;;;5973438;28;19932;-41
2021/12/13 15:16:38;;;;;;;;;;;23.20;48.00;;;;;;5987926;28;20017;-42
2021/12/13 15:19:39;;;;;;;;;;;23.30;48.30;;;;;;6001897;28;19928;-42
2021/12/13 15:22:44;;;;;;;;;;;23.40;47.40;;;;;;5994489;28;22689;-42
2021/12/13 15:25:47;;;;;;;;;;;23.20;48.10;;;;;;5994089;28;20002;-42
2021/12/13 15:28:49;;;;;;;;;;;22.80;47.90;;;;;;6000014;28;21123;-41
2021/12/13 15:31:53;;;;;;;;;;;23.60;48.00;;;;;;5955069;28;19928;-41
2021/12/13 15:34:56;;;;;;;;;;;23.00;47.80;;;;;;5987406;28;19947;-41
2021/12/13 15:38:00;;;;;;;;;;;23.30;48.10;;;;;;5991763;28;20086;-42
2021/12/13 15:41:01;;;;;;;;;;;23.10;47.80;;;;;;5988259;28;21202;-42
2021/12/13 15:44:06;;;;;;;;;;;23.30;48.00;;;;;;5996754;28;19936;-40
2021/12/13 15:47:07;;;;;;;;;;;23.00;47.90;;;;;;5991322;28;22641;-41
2021/12/13 15:50:22;;;;;;;;;;;22.90;47.80;;;;;;6000624;28;21446;-40
2021/12/13 15:53:25;;;;;;;;;;;23.20;47.80;;;;;;5974018;28;19929;-39
2021/12/13 15:56:28;;;;;;;;;;;23.40;48.00;;;;;;6003911;28;20102;-40
2021/12/13 15:59:31;;;;;;;;;;;23.10;47.80;;;;;;5978386;28;20012;-39
2021/12/13 16:02:34;;;;;;;;;;;23.00;47.80;;;;;;5921775;28;20623;-41
2021/12/13 16:05:36;;;;;;;;;;;23.00;47.70;;;;;;5996639;28;19928;-41
2021/12/13 16:08:40;;;;;;;;;;;23.40;48.00;;;;;;6017641;28;20041;-39
2021/12/13 16:11:43;;;;;;;;;;;23.00;47.70;;;;;;6010027;28;19935;-41
2021/12/13 16:14:46;;;;;;;;;;;23.40;48.00;;;;;;6030324;28;19991;-41
2021/12/13 16:17:48;;;;;;;;;;;23.20;47.80;;;;;;6029089;28;20100;-41
2021/12/13 16:20:52;;;;;;;;;;;23.30;47.90;;;;;;6024537;28;19928;-41
2021/12/13 16:23:56;;;;;;;;;;;23.10;47.70;;;;;;6036242;28;19928;-43
2021/12/13 16:26:58;;;;;;;;;;;23.40;47.40;;;;;;6008193;28;19994;-39
2021/12/13 16:29:59;;;;;;;;;;;23.00;47.60;;;;;;6041072;28;19935;-41
2021/12/13 16:33:02;;;;;;;;;;;22.90;47.50;;;;;;6040296;28;20091;-41
2021/12/13 16:36:05;;;;;;;;;;;23.00;47.50;;;;;;6070686;28;19928;-42
2021/12/13 16:39:11;;;;;;;;;;;23.40;47.90;;;;;;6087533;28;20166;-42
2021/12/13 16:42:14;;;;;;;;;;;23.40;47.90;;;;;;6085018;28;20251;-41
2021/12/13 16:45:15;;;;;;;;;;;23.20;47.80;;;;;;6095946;28;19983;-40
2021/12/13 16:48:18;;;;;;;;;;;23.10;47.20;;;;;;6099385;28;21231;-43
2021/12/13 16:51:21;;;;;;;;;;;23.00;47.60;;;;;;6095266;28;19935;-42
2021/12/13 16:54:25;;;;;;;;;;;23.20;47.80;;;;;;6096503;28;21314;-42
2021/12/13 16:57:28;;;;;;;;;;;23.40;47.30;;;;;;6108755;28;19928;-42
2021/12/13 17:00:31;;;;;;;;;;;23.20;47.90;;;;;;6086093;28;19935;-40
2021/12/13 17:03:34;;;;;;;;;;;22.90;47.60;;;;;;6099366;28;20118;-40
2021/12/13 17:06:42;;;;;;;;;;;23.10;47.70;;;;;;6109450;28;19949;-40
2021/12/13 17:09:51;;;;;;;;;;;22.80;47.50;;;;;;6108996;28;20786;-41
2021/12/13 17:12:59;;;;;;;;;;;23.10;47.80;;;;;;6120533;28;19929;-41
2021/12/13 17:16:04;;;;;;;;;;;23.30;48.00;;;;;;6130928;28;20064;-41
2021/12/13 17:19:09;;;;;;;;;;;23.10;47.90;;;;;;6124219;28;19935;-41
2021/12/13 17:22:11;;;;;;;;;;;23.10;48.10;;;;;;6157945;28;21416;-41
2021/12/13 17:25:14;;;;;;;;;;;23.00;48.00;;;;;;6169267;28;21063;-41
2021/12/13 17:28:15;;;;;;;;;;;22.60;47.90;;;;;;6183425;28;20056;-41
2021/12/13 17:31:17;;;;;;;;;;;22.60;47.50;;;;;;6187883;28;19975;-41
2021/12/13 17:34:30;;;;;;;;;;;23.50;48.60;;;;;;6171862;28;21063;-40
2021/12/13 17:37:35;;;;;;;;;;;22.90;48.00;;;;;;6185167;28;21316;-41
2021/12/13 17:40:38;;;;;;;;;;;22.70;47.90;;;;;;6179215;28;19928;-41
2021/12/13 17:43:41;;;;;;;;;;;22.40;48.00;;;;;;6192654;28;19928;-40
2021/12/13 17:46:45;;;;;;;;;;;23.20;48.50;;;;;;6189478;28;19929;-42
2021/12/13 17:49:48;;;;;;;;;;;22.90;48.30;;;;;;6172685;28;20894;-40
2021/12/13 17:52:53;;;;;;;;;;;22.50;48.10;;;;;;6190462;28;19928;-40
2021/12/13 17:55:57;;;;;;;;;;;22.70;48.30;;;;;;6177088;28;19978;-40
2021/12/13 17:59:01;;;;;;;;;;;23.00;48.40;;;;;;6182083;28;20047;-42
2021/12/13 18:02:04;;;;;;;;;;;23.10;48.70;;;;;;6187365;28;20057;-41